sensor_id;sensor_type;location;lat;lon;timestamp;P1;durP1;ratioP1;P2;durP2;ratioP2
16642;SDS011;8435;52.184;5.406;2023-11-22T00:01:53;9.50;;;8.60;;
16642;SDS011;8435;52.184;5.406;2023-11-22T00:04:19;10.30;;;8.57;;
16642;SDS011;8435;52.184;5.406;2023-11-22T00:06:47;9.40;;;8.50;;
16642;SDS011;8435;52.184;5.406;2023-11-22T00:09:14;10.67;;;9.67;;
16642;SDS011;8435;52.184;5.406;2023-11-22T00:11:41;9.53;;;8.63;;
16642;SDS011;8435;52.184;5.406;2023-11-22T00:14:08;10.43;;;9.43;;
16642;SDS011;8435;52.184;5.406;2023-11-22T00:16:34;8.63;;;7.77;;
16642;SDS011;8435;52.184;5.406;2023-11-22T00:19:04;9.43;;;8.53;;
16642;SDS011;8435;52.184;5.406;2023-11-22T00:21:32;9.47;;;8.47;;
16642;SDS011;8435;52.184;5.406;2023-11-22T00:24:01;9.97;;;8.87;;
16642;SDS011;8435;52.184;5.406;2023-11-22T00:26:28;9.70;;;8.70;;
16642;SDS011;8435;52.184;5.406;2023-11-22T00:28:54;9.97;;;8.73;;
16642;SDS011;8435;52.184;5.406;2023-11-22T00:31:21;10.70;;;8.73;;
16642;SDS011;8435;52.184;5.406;2023-11-22T00:33:48;10.27;;;9.17;;
16642;SDS011;8435;52.184;5.406;2023-11-22T00:36:15;10.70;;;9.43;;
16642;SDS011;8435;52.184;5.406;2023-11-22T00:38:42;9.73;;;8.63;;
16642;SDS011;8435;52.184;5.406;2023-11-22T00:41:10;10.43;;;9.30;;
16642;SDS011;8435;52.184;5.406;2023-11-22T00:43:37;10.53;;;9.43;;
16642;SDS011;8435;52.184;5.406;2023-11-22T00:46:04;9.83;;;8.70;;
16642;SDS011;8435;52.184;5.406;2023-11-22T00:48:31;9.33;;;8.43;;
16642;SDS011;8435;52.184;5.406;2023-11-22T00:50:57;9.73;;;8.73;;
16642;SDS011;8435;52.184;5.406;2023-11-22T00:53:24;10.30;;;9.30;;
16642;SDS011;8435;52.184;5.406;2023-11-22T00:55:51;10.13;;;9.07;;
16642;SDS011;8435;52.184;5.406;2023-11-22T00:58:19;10.23;;;9.17;;
16642;SDS011;8435;52.184;5.406;2023-11-22T01:00:46;10.30;;;9.30;;
16642;SDS011;8435;52.184;5.406;2023-11-22T01:03:13;10.27;;;9.13;;
16642;SDS011;8435;52.184;5.406;2023-11-22T01:05:39;9.40;;;8.47;;
16642;SDS011;8435;52.184;5.406;2023-11-22T01:08:07;9.63;;;8.73;;
16642;SDS011;8435;52.184;5.406;2023-11-22T01:10:35;9.90;;;8.90;;
16642;SDS011;8435;52.184;5.406;2023-11-22T01:13:01;10.00;;;8.37;;
16642;SDS011;8435;52.184;5.406;2023-11-22T01:15:30;10.00;;;9.00;;
16642;SDS011;8435;52.184;5.406;2023-11-22T01:17:58;10.57;;;9.30;;
16642;SDS011;8435;52.184;5.406;2023-11-22T01:20:25;11.37;;;10.20;;
16642;SDS011;8435;52.184;5.406;2023-11-22T01:22:52;10.87;;;9.77;;
16642;SDS011;8435;52.184;5.406;2023-11-22T01:25:18;10.57;;;9.47;;
16642;SDS011;8435;52.184;5.406;2023-11-22T01:27:45;11.93;;;9.80;;
16642;SDS011;8435;52.184;5.406;2023-11-22T01:30:12;10.17;;;8.90;;
16642;SDS011;8435;52.184;5.406;2023-11-22T01:32:41;10.73;;;9.47;;
16642;SDS011;8435;52.184;5.406;2023-11-22T01:35:08;10.57;;;8.50;;
16642;SDS011;8435;52.184;5.406;2023-11-22T01:37:34;10.73;;;9.43;;
16642;SDS011;8435;52.184;5.406;2023-11-22T01:40:01;10.57;;;9.47;;
16642;SDS011;8435;52.184;5.406;2023-11-22T01:42:29;11.90;;;10.60;;
16642;SDS011;8435;52.184;5.406;2023-11-22T01:44:55;10.50;;;9.40;;
16642;SDS011;8435;52.184;5.406;2023-11-22T01:47:22;11.33;;;10.13;;
16642;SDS011;8435;52.184;5.406;2023-11-22T01:49:50;13.17;;;10.43;;
16642;SDS011;8435;52.184;5.406;2023-11-22T01:52:17;10.27;;;9.00;;
16642;SDS011;8435;52.184;5.406;2023-11-22T01:54:44;11.63;;;10.43;;
16642;SDS011;8435;52.184;5.406;2023-11-22T01:57:11;11.90;;;10.43;;
16642;SDS011;8435;52.184;5.406;2023-11-22T01:59:38;12.60;;;10.67;;
16642;SDS011;8435;52.184;5.406;2023-11-22T02:02:05;10.70;;;9.60;;
16642;SDS011;8435;52.184;5.406;2023-11-22T02:04:32;10.80;;;9.70;;
16642;SDS011;8435;52.184;5.406;2023-11-22T02:07:00;11.27;;;9.97;;
16642;SDS011;8435;52.184;5.406;2023-11-22T02:09:28;11.20;;;9.47;;
16642;SDS011;8435;52.184;5.406;2023-11-22T02:11:55;11.70;;;10.50;;
16642;SDS011;8435;52.184;5.406;2023-11-22T02:14:22;11.60;;;10.40;;
16642;SDS011;8435;52.184;5.406;2023-11-22T02:16:49;10.97;;;9.37;;
16642;SDS011;8435;52.184;5.406;2023-11-22T02:19:16;12.83;;;10.33;;
16642;SDS011;8435;52.184;5.406;2023-11-22T02:21:43;12.73;;;10.50;;
16642;SDS011;8435;52.184;5.406;2023-11-22T02:24:12;10.77;;;9.67;;
16642;SDS011;8435;52.184;5.406;2023-11-22T02:26:43;13.43;;;9.63;;
16642;SDS011;8435;52.184;5.406;2023-11-22T02:29:10;11.07;;;9.97;;
16642;SDS011;8435;52.184;5.406;2023-11-22T02:31:38;11.20;;;10.00;;
16642;SDS011;8435;52.184;5.406;2023-11-22T02:34:06;10.73;;;9.27;;
16642;SDS011;8435;52.184;5.406;2023-11-22T02:36:32;11.63;;;10.03;;
16642;SDS011;8435;52.184;5.406;2023-11-22T02:38:59;13.27;;;10.17;;
16642;SDS011;8435;52.184;5.406;2023-11-22T02:41:28;11.53;;;9.77;;
16642;SDS011;8435;52.184;5.406;2023-11-22T02:43:55;11.23;;;10.00;;
16642;SDS011;8435;52.184;5.406;2023-11-22T02:46:22;10.87;;;9.57;;
16642;SDS011;8435;52.184;5.406;2023-11-22T02:48:49;12.17;;;10.70;;
16642;SDS011;8435;52.184;5.406;2023-11-22T02:51:16;11.23;;;9.97;;
16642;SDS011;8435;52.184;5.406;2023-11-22T02:53:43;11.97;;;10.77;;
16642;SDS011;8435;52.184;5.406;2023-11-22T02:56:11;14.10;;;11.13;;
16642;SDS011;8435;52.184;5.406;2023-11-22T02:58:39;12.90;;;10.80;;
16642;SDS011;8435;52.184;5.406;2023-11-22T03:01:06;11.83;;;10.17;;
16642;SDS011;8435;52.184;5.406;2023-11-22T03:03:33;12.10;;;10.90;;
16642;SDS011;8435;52.184;5.406;2023-11-22T03:06:00;12.30;;;10.20;;
16642;SDS011;8435;52.184;5.406;2023-11-22T03:08:27;12.23;;;10.93;;
16642;SDS011;8435;52.184;5.406;2023-11-22T03:10:54;11.67;;;10.47;;
16642;SDS011;8435;52.184;5.406;2023-11-22T03:13:21;11.93;;;10.73;;
16642;SDS011;8435;52.184;5.406;2023-11-22T03:15:49;11.30;;;9.73;;
16642;SDS011;8435;52.184;5.406;2023-11-22T03:18:17;11.77;;;10.20;;
16642;SDS011;8435;52.184;5.406;2023-11-22T03:20:43;11.87;;;10.67;;
16642;SDS011;8435;52.184;5.406;2023-11-22T03:23:10;12.40;;;10.93;;
16642;SDS011;8435;52.184;5.406;2023-11-22T03:25:37;13.03;;;11.17;;
16642;SDS011;8435;52.184;5.406;2023-11-22T03:28:04;14.43;;;11.70;;
16642;SDS011;8435;52.184;5.406;2023-11-22T03:30:31;13.23;;;11.83;;
16642;SDS011;8435;52.184;5.406;2023-11-22T03:32:59;13.10;;;11.53;;
16642;SDS011;8435;52.184;5.406;2023-11-22T03:35:26;14.37;;;12.87;;
16642;SDS011;8435;52.184;5.406;2023-11-22T03:37:54;13.47;;;11.17;;
16642;SDS011;8435;52.184;5.406;2023-11-22T03:40:21;13.57;;;12.13;;
16642;SDS011;8435;52.184;5.406;2023-11-22T03:42:47;12.83;;;11.40;;
16642;SDS011;8435;52.184;5.406;2023-11-22T03:45:13;13.53;;;11.57;;
16642;SDS011;8435;52.184;5.406;2023-11-22T03:47:40;11.77;;;10.57;;
16642;SDS011;8435;52.184;5.406;2023-11-22T03:50:08;14.20;;;12.00;;
16642;SDS011;8435;52.184;5.406;2023-11-22T03:52:35;14.10;;;12.13;;
16642;SDS011;8435;52.184;5.406;2023-11-22T03:55:02;11.90;;;10.33;;
16642;SDS011;8435;52.184;5.406;2023-11-22T03:57:30;12.80;;;10.80;;
16642;SDS011;8435;52.184;5.406;2023-11-22T03:59:57;11.93;;;10.57;;
16642;SDS011;8435;52.184;5.406;2023-11-22T04:02:24;12.97;;;11.23;;
16642;SDS011;8435;52.184;5.406;2023-11-22T04:04:52;12.57;;;10.17;;
16642;SDS011;8435;52.184;5.406;2023-11-22T04:07:20;11.60;;;10.40;;
16642;SDS011;8435;52.184;5.406;2023-11-22T04:09:47;12.83;;;10.50;;
16642;SDS011;8435;52.184;5.406;2023-11-22T04:12:15;12.07;;;10.70;;
16642;SDS011;8435;52.184;5.406;2023-11-22T04:14:41;13.37;;;11.47;;
16642;SDS011;8435;52.184;5.406;2023-11-22T04:17:08;13.73;;;10.70;;
16642;SDS011;8435;52.184;5.406;2023-11-22T04:19:35;11.90;;;10.53;;
16642;SDS011;8435;52.184;5.406;2023-11-22T04:22:02;13.57;;;12.00;;
16642;SDS011;8435;52.184;5.406;2023-11-22T04:24:30;13.27;;;11.03;;
16642;SDS011;8435;52.184;5.406;2023-11-22T04:26:57;11.73;;;9.73;;
16642;SDS011;8435;52.184;5.406;2023-11-22T04:29:24;11.57;;;10.17;;
16642;SDS011;8435;52.184;5.406;2023-11-22T04:31:51;12.17;;;10.40;;
16642;SDS011;8435;52.184;5.406;2023-11-22T04:34:18;11.93;;;10.53;;
16642;SDS011;8435;52.184;5.406;2023-11-22T04:36:45;11.10;;;10.00;;
16642;SDS011;8435;52.184;5.406;2023-11-22T04:39:13;13.53;;;10.63;;
16642;SDS011;8435;52.184;5.406;2023-11-22T04:41:41;12.97;;;10.57;;
16642;SDS011;8435;52.184;5.406;2023-11-22T04:44:08;12.00;;;9.93;;
16642;SDS011;8435;52.184;5.406;2023-11-22T04:46:35;11.63;;;10.53;;
16642;SDS011;8435;52.184;5.406;2023-11-22T04:49:02;11.20;;;10.00;;
16642;SDS011;8435;52.184;5.406;2023-11-22T04:51:29;11.83;;;9.87;;
16642;SDS011;8435;52.184;5.406;2023-11-22T04:53:57;12.23;;;10.00;;
16642;SDS011;8435;52.184;5.406;2023-11-22T04:56:24;12.33;;;9.97;;
16642;SDS011;8435;52.184;5.406;2023-11-22T04:58:52;11.60;;;9.70;;
16642;SDS011;8435;52.184;5.406;2023-11-22T05:01:19;11.53;;;10.30;;
16642;SDS011;8435;52.184;5.406;2023-11-22T05:03:46;13.37;;;10.53;;
16642;SDS011;8435;52.184;5.406;2023-11-22T05:06:13;11.63;;;9.70;;
16642;SDS011;8435;52.184;5.406;2023-11-22T05:08:40;13.47;;;10.37;;
16642;SDS011;8435;52.184;5.406;2023-11-22T05:11:07;12.17;;;10.87;;
16642;SDS011;8435;52.184;5.406;2023-11-22T05:13:35;12.43;;;10.30;;
16642;SDS011;8435;52.184;5.406;2023-11-22T05:16:03;11.47;;;9.57;;
16642;SDS011;8435;52.184;5.406;2023-11-22T05:18:30;11.73;;;10.40;;
16642;SDS011;8435;52.184;5.406;2023-11-22T05:20:57;12.83;;;9.93;;
16642;SDS011;8435;52.184;5.406;2023-11-22T05:23:24;13.37;;;10.80;;
16642;SDS011;8435;52.184;5.406;2023-11-22T05:25:51;13.20;;;10.93;;
16642;SDS011;8435;52.184;5.406;2023-11-22T05:28:18;13.30;;;9.97;;
16642;SDS011;8435;52.184;5.406;2023-11-22T05:30:44;12.50;;;9.77;;
16642;SDS011;8435;52.184;5.406;2023-11-22T05:33:13;12.03;;;9.83;;
16642;SDS011;8435;52.184;5.406;2023-11-22T05:35:39;12.57;;;10.60;;
16642;SDS011;8435;52.184;5.406;2023-11-22T05:38:06;13.90;;;10.13;;
16642;SDS011;8435;52.184;5.406;2023-11-22T05:40:33;13.00;;;10.03;;
16642;SDS011;8435;52.184;5.406;2023-11-22T05:43:00;12.33;;;10.47;;
16642;SDS011;8435;52.184;5.406;2023-11-22T05:45:27;11.13;;;9.20;;
16642;SDS011;8435;52.184;5.406;2023-11-22T05:47:54;12.07;;;10.13;;
16642;SDS011;8435;52.184;5.406;2023-11-22T05:50:22;11.10;;;9.90;;
16642;SDS011;8435;52.184;5.406;2023-11-22T05:52:49;15.57;;;10.93;;
16642;SDS011;8435;52.184;5.406;2023-11-22T05:55:16;12.60;;;11.00;;
16642;SDS011;8435;52.184;5.406;2023-11-22T05:57:43;13.00;;;10.23;;
16642;SDS011;8435;52.184;5.406;2023-11-22T06:00:11;12.67;;;10.67;;
16642;SDS011;8435;52.184;5.406;2023-11-22T06:02:39;12.50;;;10.10;;
16642;SDS011;8435;52.184;5.406;2023-11-22T06:05:06;12.73;;;10.87;;
16642;SDS011;8435;52.184;5.406;2023-11-22T06:07:35;11.83;;;10.20;;
16642;SDS011;8435;52.184;5.406;2023-11-22T06:10:02;11.67;;;9.53;;
16642;SDS011;8435;52.184;5.406;2023-11-22T06:12:30;15.50;;;10.37;;
16642;SDS011;8435;52.184;5.406;2023-11-22T06:14:56;14.17;;;10.73;;
16642;SDS011;8435;52.184;5.406;2023-11-22T06:17:23;12.57;;;10.40;;
16642;SDS011;8435;52.184;5.406;2023-11-22T06:19:50;12.77;;;11.07;;
16642;SDS011;8435;52.184;5.406;2023-11-22T06:22:17;13.37;;;10.53;;
16642;SDS011;8435;52.184;5.406;2023-11-22T06:24:45;13.90;;;10.63;;
16642;SDS011;8435;52.184;5.406;2023-11-22T06:27:13;13.97;;;11.00;;
16642;SDS011;8435;52.184;5.406;2023-11-22T06:29:40;14.70;;;12.03;;
16642;SDS011;8435;52.184;5.406;2023-11-22T06:32:08;16.50;;;12.57;;
16642;SDS011;8435;52.184;5.406;2023-11-22T06:34:35;15.50;;;12.37;;
16642;SDS011;8435;52.184;5.406;2023-11-22T06:37:02;20.03;;;13.70;;
16642;SDS011;8435;52.184;5.406;2023-11-22T06:39:32;16.33;;;13.27;;
16642;SDS011;8435;52.184;5.406;2023-11-22T06:42:00;16.40;;;13.63;;
16642;SDS011;8435;52.184;5.406;2023-11-22T06:44:27;15.27;;;12.30;;
16642;SDS011;8435;52.184;5.406;2023-11-22T06:46:54;14.70;;;13.10;;
16642;SDS011;8435;52.184;5.406;2023-11-22T06:49:21;16.53;;;13.23;;
16642;SDS011;8435;52.184;5.406;2023-11-22T06:51:48;16.43;;;12.50;;
16642;SDS011;8435;52.184;5.406;2023-11-22T06:54:14;13.30;;;11.50;;
16642;SDS011;8435;52.184;5.406;2023-11-22T06:56:41;16.93;;;12.13;;
16642;SDS011;8435;52.184;5.406;2023-11-22T06:59:10;14.70;;;11.83;;
16642;SDS011;8435;52.184;5.406;2023-11-22T07:01:38;12.93;;;11.53;;
16642;SDS011;8435;52.184;5.406;2023-11-22T07:04:08;13.83;;;11.87;;
16642;SDS011;8435;52.184;5.406;2023-11-22T07:06:34;14.13;;;12.40;;
16642;SDS011;8435;52.184;5.406;2023-11-22T07:09:02;17.77;;;13.43;;
16642;SDS011;8435;52.184;5.406;2023-11-22T07:11:29;17.37;;;12.30;;
16642;SDS011;8435;52.184;5.406;2023-11-22T07:13:56;17.37;;;11.17;;
16642;SDS011;8435;52.184;5.406;2023-11-22T07:16:25;12.80;;;11.10;;
16642;SDS011;8435;52.184;5.406;2023-11-22T07:18:52;14.00;;;11.27;;
16642;SDS011;8435;52.184;5.406;2023-11-22T07:21:19;16.03;;;11.97;;
16642;SDS011;8435;52.184;5.406;2023-11-22T07:23:46;15.37;;;12.10;;
16642;SDS011;8435;52.184;5.406;2023-11-22T07:26:13;15.77;;;11.67;;
16642;SDS011;8435;52.184;5.406;2023-11-22T07:28:40;15.00;;;12.23;;
16642;SDS011;8435;52.184;5.406;2023-11-22T07:31:07;15.63;;;12.13;;
16642;SDS011;8435;52.184;5.406;2023-11-22T07:33:36;15.97;;;13.07;;
16642;SDS011;8435;52.184;5.406;2023-11-22T07:36:04;15.47;;;12.47;;
16642;SDS011;8435;52.184;5.406;2023-11-22T07:38:31;17.40;;;14.70;;
16642;SDS011;8435;52.184;5.406;2023-11-22T07:40:58;18.67;;;14.17;;
16642;SDS011;8435;52.184;5.406;2023-11-22T07:43:25;15.27;;;12.47;;
16642;SDS011;8435;52.184;5.406;2023-11-22T07:45:52;14.83;;;11.80;;
16642;SDS011;8435;52.184;5.406;2023-11-22T07:48:19;14.93;;;12.30;;
16642;SDS011;8435;52.184;5.406;2023-11-22T07:50:49;15.63;;;12.97;;
16642;SDS011;8435;52.184;5.406;2023-11-22T07:53:20;13.87;;;12.23;;
16642;SDS011;8435;52.184;5.406;2023-11-22T07:55:47;14.80;;;11.97;;
16642;SDS011;8435;52.184;5.406;2023-11-22T07:58:14;14.73;;;12.23;;
16642;SDS011;8435;52.184;5.406;2023-11-22T08:00:41;14.23;;;11.83;;
16642;SDS011;8435;52.184;5.406;2023-11-22T08:03:08;15.47;;;12.60;;
16642;SDS011;8435;52.184;5.406;2023-11-22T08:05:35;16.33;;;12.27;;
16642;SDS011;8435;52.184;5.406;2023-11-22T08:08:06;14.83;;;11.93;;
16642;SDS011;8435;52.184;5.406;2023-11-22T08:10:33;15.13;;;11.77;;
16642;SDS011;8435;52.184;5.406;2023-11-22T08:13:00;14.97;;;12.60;;
16642;SDS011;8435;52.184;5.406;2023-11-22T08:15:28;13.47;;;11.97;;
16642;SDS011;8435;52.184;5.406;2023-11-22T08:17:59;15.30;;;11.60;;
16642;SDS011;8435;52.184;5.406;2023-11-22T08:20:30;13.50;;;11.27;;
16642;SDS011;8435;52.184;5.406;2023-11-22T08:22:57;14.40;;;11.53;;
16642;SDS011;8435;52.184;5.406;2023-11-22T08:25:27;14.13;;;12.03;;
16642;SDS011;8435;52.184;5.406;2023-11-22T08:27:54;17.70;;;12.63;;
16642;SDS011;8435;52.184;5.406;2023-11-22T08:30:25;15.83;;;12.07;;
16642;SDS011;8435;52.184;5.406;2023-11-22T08:32:52;16.17;;;12.97;;
16642;SDS011;8435;52.184;5.406;2023-11-22T08:35:20;16.83;;;13.93;;
16642;SDS011;8435;52.184;5.406;2023-11-22T08:37:48;16.43;;;12.73;;
16642;SDS011;8435;52.184;5.406;2023-11-22T08:40:16;17.50;;;14.17;;
16642;SDS011;8435;52.184;5.406;2023-11-22T08:42:46;15.47;;;12.60;;
16642;SDS011;8435;52.184;5.406;2023-11-22T08:45:13;15.50;;;13.17;;
16642;SDS011;8435;52.184;5.406;2023-11-22T08:47:40;15.77;;;12.13;;
16642;SDS011;8435;52.184;5.406;2023-11-22T08:50:08;17.27;;;13.43;;
16642;SDS011;8435;52.184;5.406;2023-11-22T08:52:37;15.00;;;12.80;;
16642;SDS011;8435;52.184;5.406;2023-11-22T08:55:05;16.93;;;13.77;;
16642;SDS011;8435;52.184;5.406;2023-11-22T08:57:32;15.63;;;13.57;;
16642;SDS011;8435;52.184;5.406;2023-11-22T09:00:01;16.17;;;13.57;;
16642;SDS011;8435;52.184;5.406;2023-11-22T09:02:32;15.97;;;14.27;;
16642;SDS011;8435;52.184;5.406;2023-11-22T09:04:59;16.70;;;13.50;;
16642;SDS011;8435;52.184;5.406;2023-11-22T09:07:25;15.77;;;14.03;;
16642;SDS011;8435;52.184;5.406;2023-11-22T09:09:53;16.77;;;12.90;;
16642;SDS011;8435;52.184;5.406;2023-11-22T09:12:20;16.87;;;13.67;;
16642;SDS011;8435;52.184;5.406;2023-11-22T09:14:46;16.93;;;12.93;;
16642;SDS011;8435;52.184;5.406;2023-11-22T09:17:15;18.27;;;14.20;;
16642;SDS011;8435;52.184;5.406;2023-11-22T09:19:41;16.27;;;13.17;;
16642;SDS011;8435;52.184;5.406;2023-11-22T09:22:08;21.80;;;18.07;;
16642;SDS011;8435;52.184;5.406;2023-11-22T09:24:36;18.57;;;15.07;;
16642;SDS011;8435;52.184;5.406;2023-11-22T09:27:03;18.10;;;13.80;;
16642;SDS011;8435;52.184;5.406;2023-11-22T09:29:31;16.17;;;13.80;;
16642;SDS011;8435;52.184;5.406;2023-11-22T09:31:59;18.07;;;14.10;;
16642;SDS011;8435;52.184;5.406;2023-11-22T09:34:28;15.63;;;13.87;;
16642;SDS011;8435;52.184;5.406;2023-11-22T09:36:56;16.63;;;13.23;;
16642;SDS011;8435;52.184;5.406;2023-11-22T09:39:23;14.80;;;12.87;;
16642;SDS011;8435;52.184;5.406;2023-11-22T09:41:55;16.00;;;14.00;;
16642;SDS011;8435;52.184;5.406;2023-11-22T09:44:21;16.93;;;13.63;;
16642;SDS011;8435;52.184;5.406;2023-11-22T09:46:48;15.13;;;13.20;;
16642;SDS011;8435;52.184;5.406;2023-11-22T09:49:19;15.23;;;13.57;;
16642;SDS011;8435;52.184;5.406;2023-11-22T09:51:50;14.47;;;12.93;;
16642;SDS011;8435;52.184;5.406;2023-11-22T09:54:20;16.20;;;14.20;;
16642;SDS011;8435;52.184;5.406;2023-11-22T09:56:54;16.50;;;12.60;;
16642;SDS011;8435;52.184;5.406;2023-11-22T09:59:23;17.37;;;13.90;;
16642;SDS011;8435;52.184;5.406;2023-11-22T10:01:50;16.33;;;13.10;;
16642;SDS011;8435;52.184;5.406;2023-11-22T10:04:19;16.77;;;13.47;;
16642;SDS011;8435;52.184;5.406;2023-11-22T10:06:45;17.27;;;13.27;;
16642;SDS011;8435;52.184;5.406;2023-11-22T10:09:14;16.07;;;12.70;;
16642;SDS011;8435;52.184;5.406;2023-11-22T10:11:42;13.67;;;12.23;;
16642;SDS011;8435;52.184;5.406;2023-11-22T10:14:10;15.77;;;13.60;;
16642;SDS011;8435;52.184;5.406;2023-11-22T10:16:39;15.43;;;13.60;;
16642;SDS011;8435;52.184;5.406;2023-11-22T10:19:06;15.30;;;12.60;;
16642;SDS011;8435;52.184;5.406;2023-11-22T10:21:39;16.63;;;12.97;;
16642;SDS011;8435;52.184;5.406;2023-11-22T10:24:06;16.13;;;13.27;;
16642;SDS011;8435;52.184;5.406;2023-11-22T10:26:36;14.17;;;12.67;;
16642;SDS011;8435;52.184;5.406;2023-11-22T10:29:06;14.43;;;11.87;;
16642;SDS011;8435;52.184;5.406;2023-11-22T10:31:33;14.50;;;11.93;;
16642;SDS011;8435;52.184;5.406;2023-11-22T10:34:00;15.90;;;13.63;;
16642;SDS011;8435;52.184;5.406;2023-11-22T10:36:29;15.63;;;13.63;;
16642;SDS011;8435;52.184;5.406;2023-11-22T10:38:56;16.80;;;13.40;;
16642;SDS011;8435;52.184;5.406;2023-11-22T10:41:23;16.97;;;13.67;;
16642;SDS011;8435;52.184;5.406;2023-11-22T10:43:52;15.63;;;13.90;;
16642;SDS011;8435;52.184;5.406;2023-11-22T10:46:21;15.80;;;13.03;;
16642;SDS011;8435;52.184;5.406;2023-11-22T10:48:53;14.63;;;12.97;;
16642;SDS011;8435;52.184;5.406;2023-11-22T10:51:23;15.80;;;12.20;;
16642;SDS011;8435;52.184;5.406;2023-11-22T10:53:55;17.50;;;13.53;;
16642;SDS011;8435;52.184;5.406;2023-11-22T10:56:25;14.40;;;11.80;;
16642;SDS011;8435;52.184;5.406;2023-11-22T10:58:55;14.77;;;11.97;;
16642;SDS011;8435;52.184;5.406;2023-11-22T11:01:23;13.60;;;12.20;;
16642;SDS011;8435;52.184;5.406;2023-11-22T11:03:55;14.27;;;12.77;;
16642;SDS011;8435;52.184;5.406;2023-11-22T11:06:31;14.33;;;12.43;;
16642;SDS011;8435;52.184;5.406;2023-11-22T11:08:59;12.97;;;11.60;;
16642;SDS011;8435;52.184;5.406;2023-11-22T11:11:30;13.70;;;12.30;;
16642;SDS011;8435;52.184;5.406;2023-11-22T11:13:59;13.67;;;11.03;;
16642;SDS011;8435;52.184;5.406;2023-11-22T11:16:28;15.03;;;12.90;;
16642;SDS011;8435;52.184;5.406;2023-11-22T11:18:58;14.00;;;12.60;;
16642;SDS011;8435;52.184;5.406;2023-11-22T11:21:26;14.97;;;11.97;;
16642;SDS011;8435;52.184;5.406;2023-11-22T11:23:53;15.07;;;13.30;;
16642;SDS011;8435;52.184;5.406;2023-11-22T11:26:31;14.30;;;11.93;;
16642;SDS011;8435;52.184;5.406;2023-11-22T11:29:02;12.83;;;11.43;;
16642;SDS011;8435;52.184;5.406;2023-11-22T11:31:31;12.83;;;11.30;;
16642;SDS011;8435;52.184;5.406;2023-11-22T11:34:00;13.37;;;11.97;;
16642;SDS011;8435;52.184;5.406;2023-11-22T11:36:28;14.23;;;12.73;;
16642;SDS011;8435;52.184;5.406;2023-11-22T11:38:58;13.63;;;12.23;;
16642;SDS011;8435;52.184;5.406;2023-11-22T11:41:28;13.27;;;11.90;;
16642;SDS011;8435;52.184;5.406;2023-11-22T11:43:57;13.50;;;11.93;;
16642;SDS011;8435;52.184;5.406;2023-11-22T11:46:26;13.67;;;12.23;;
16642;SDS011;8435;52.184;5.406;2023-11-22T11:48:55;13.13;;;11.83;;
16642;SDS011;8435;52.184;5.406;2023-11-22T11:51:22;13.73;;;12.30;;
16642;SDS011;8435;52.184;5.406;2023-11-22T11:53:50;13.23;;;11.17;;
16642;SDS011;8435;52.184;5.406;2023-11-22T11:56:25;13.47;;;12.07;;
16642;SDS011;8435;52.184;5.406;2023-11-22T11:58:56;13.43;;;12.03;;
16642;SDS011;8435;52.184;5.406;2023-11-22T12:01:27;13.77;;;12.30;;
16642;SDS011;8435;52.184;5.406;2023-11-22T12:03:54;13.27;;;11.83;;
16642;SDS011;8435;52.184;5.406;2023-11-22T12:06:21;12.53;;;11.07;;
16642;SDS011;8435;52.184;5.406;2023-11-22T12:08:48;13.07;;;11.67;;
16642;SDS011;8435;52.184;5.406;2023-11-22T12:11:15;14.77;;;11.43;;
16642;SDS011;8435;52.184;5.406;2023-11-22T12:13:43;12.73;;;11.43;;
16642;SDS011;8435;52.184;5.406;2023-11-22T12:16:13;12.60;;;11.27;;
16642;SDS011;8435;52.184;5.406;2023-11-22T12:18:44;12.90;;;11.57;;
16642;SDS011;8435;52.184;5.406;2023-11-22T12:21:12;14.13;;;12.37;;
16642;SDS011;8435;52.184;5.406;2023-11-22T12:23:40;12.20;;;10.93;;
16642;SDS011;8435;52.184;5.406;2023-11-22T12:26:09;12.20;;;10.97;;
16642;SDS011;8435;52.184;5.406;2023-11-22T12:28:39;11.83;;;10.73;;
16642;SDS011;8435;52.184;5.406;2023-11-22T12:31:06;13.33;;;10.83;;
16642;SDS011;8435;52.184;5.406;2023-11-22T12:33:35;12.33;;;11.10;;
16642;SDS011;8435;52.184;5.406;2023-11-22T12:36:04;12.03;;;10.53;;
16642;SDS011;8435;52.184;5.406;2023-11-22T12:38:31;11.17;;;10.07;;
16642;SDS011;8435;52.184;5.406;2023-11-22T12:40:57;11.43;;;10.17;;
16642;SDS011;8435;52.184;5.406;2023-11-22T12:43:24;10.77;;;9.77;;
16642;SDS011;8435;52.184;5.406;2023-11-22T12:45:57;10.90;;;9.87;;
16642;SDS011;8435;52.184;5.406;2023-11-22T12:48:25;11.20;;;10.00;;
16642;SDS011;8435;52.184;5.406;2023-11-22T12:50:55;11.40;;;10.20;;
16642;SDS011;8435;52.184;5.406;2023-11-22T12:53:24;12.00;;;10.73;;
16642;SDS011;8435;52.184;5.406;2023-11-22T12:55:53;12.03;;;10.83;;
16642;SDS011;8435;52.184;5.406;2023-11-22T12:58:21;11.33;;;10.20;;
16642;SDS011;8435;52.184;5.406;2023-11-22T13:00:50;12.10;;;10.90;;
16642;SDS011;8435;52.184;5.406;2023-11-22T13:03:23;12.77;;;11.47;;
16642;SDS011;8435;52.184;5.406;2023-11-22T13:05:50;12.57;;;11.27;;
16642;SDS011;8435;52.184;5.406;2023-11-22T13:08:18;13.17;;;11.77;;
16642;SDS011;8435;52.184;5.406;2023-11-22T13:10:48;13.53;;;12.13;;
16642;SDS011;8435;52.184;5.406;2023-11-22T13:13:18;14.13;;;12.37;;
16642;SDS011;8435;52.184;5.406;2023-11-22T13:15:45;13.20;;;11.87;;
16642;SDS011;8435;52.184;5.406;2023-11-22T13:18:12;13.97;;;11.50;;
16642;SDS011;8435;52.184;5.406;2023-11-22T13:20:39;13.00;;;11.70;;
16642;SDS011;8435;52.184;5.406;2023-11-22T13:23:09;13.90;;;12.40;;
16642;SDS011;8435;52.184;5.406;2023-11-22T13:25:39;13.23;;;11.83;;
16642;SDS011;8435;52.184;5.406;2023-11-22T13:28:09;13.37;;;11.53;;
16642;SDS011;8435;52.184;5.406;2023-11-22T13:30:35;13.77;;;12.00;;
16642;SDS011;8435;52.184;5.406;2023-11-22T13:33:02;16.23;;;12.80;;
16642;SDS011;8435;52.184;5.406;2023-11-22T13:35:29;14.60;;;13.10;;
16642;SDS011;8435;52.184;5.406;2023-11-22T13:37:59;13.43;;;11.43;;
16642;SDS011;8435;52.184;5.406;2023-11-22T13:40:27;14.40;;;12.33;;
16642;SDS011;8435;52.184;5.406;2023-11-22T13:42:56;14.43;;;12.70;;
16642;SDS011;8435;52.184;5.406;2023-11-22T13:45:24;13.63;;;12.23;;
16642;SDS011;8435;52.184;5.406;2023-11-22T13:47:52;15.00;;;13.10;;
16642;SDS011;8435;52.184;5.406;2023-11-22T13:50:22;13.57;;;12.17;;
16642;SDS011;8435;52.184;5.406;2023-11-22T13:52:51;14.73;;;12.87;;
16642;SDS011;8435;52.184;5.406;2023-11-22T13:55:19;13.70;;;12.20;;
16642;SDS011;8435;52.184;5.406;2023-11-22T13:57:48;14.37;;;12.87;;
16642;SDS011;8435;52.184;5.406;2023-11-22T14:00:16;13.47;;;12.07;;
16642;SDS011;8435;52.184;5.406;2023-11-22T14:02:46;14.10;;;12.60;;
16642;SDS011;8435;52.184;5.406;2023-11-22T14:05:16;13.40;;;12.00;;
16642;SDS011;8435;52.184;5.406;2023-11-22T14:07:43;13.67;;;12.27;;
16642;SDS011;8435;52.184;5.406;2023-11-22T14:10:11;13.27;;;11.87;;
16642;SDS011;8435;52.184;5.406;2023-11-22T14:12:41;14.10;;;12.63;;
16642;SDS011;8435;52.184;5.406;2023-11-22T14:15:10;13.97;;;12.50;;
16642;SDS011;8435;52.184;5.406;2023-11-22T14:17:37;13.87;;;12.33;;
16642;SDS011;8435;52.184;5.406;2023-11-22T14:20:07;15.53;;;13.57;;
16642;SDS011;8435;52.184;5.406;2023-11-22T14:22:36;14.63;;;13.23;;
16642;SDS011;8435;52.184;5.406;2023-11-22T14:25:04;13.93;;;12.47;;
16642;SDS011;8435;52.184;5.406;2023-11-22T14:27:33;15.37;;;13.73;;
16642;SDS011;8435;52.184;5.406;2023-11-22T14:30:00;14.90;;;13.33;;
16642;SDS011;8435;52.184;5.406;2023-11-22T14:32:30;14.60;;;13.00;;
16642;SDS011;8435;52.184;5.406;2023-11-22T14:34:59;16.43;;;14.17;;
16642;SDS011;8435;52.184;5.406;2023-11-22T14:37:28;15.00;;;13.50;;
16642;SDS011;8435;52.184;5.406;2023-11-22T14:39:55;15.80;;;14.10;;
16642;SDS011;8435;52.184;5.406;2023-11-22T14:42:22;16.60;;;13.87;;